Time;durP1;ratioP1;P1;durP2;ratioP2;P2;SDS_P1;SDS_P2;PMS_P1;PMS_P2;Temp;Humidity;BMP_temperature;BMP_pressure;BME280_temperature;BME280_humidity;BME280_pressure;Samples;Min_cycle;Max_cycle;Signal;HPM_P1;HPM_P2
2022/05/27 00:00:53;;;;;;;5.50;4.53;;;;;;;;;;5012109;28;20081;-80
2022/05/27 00:03:21;;;;;;;6.65;5.18;;;;;;;;;;5011798;28;20054;-81
2022/05/27 00:05:50;;;;;;;7.50;5.25;;;;;;;;;;5012700;28;20164;-81
2022/05/27 00:08:17;;;;;;;9.23;5.70;;;;;;;;;;4994683;28;20137;-80
2022/05/27 00:10:44;;;;;;;11.60;6.38;;;;;;;;;;4994635;28;20147;-81
2022/05/27 00:13:12;;;;;;;11.30;5.85;;;;;;;;;;5012096;28;20096;-81
2022/05/27 00:15:39;;;;;;;7.20;5.40;;;;;;;;;;5011808;28;20081;-81
2022/05/27 00:18:07;;;;;;;10.63;6.20;;;;;;;;;;5011521;28;20046;-81
2022/05/27 00:20:34;;;;;;;8.02;5.38;;;;;;;;;;4994871;28;20081;-81
2022/05/27 00:23:02;;;;;;;9.98;5.35;;;;;;;;;;5005374;28;20049;-82
2022/05/27 00:25:29;;;;;;;8.45;5.18;;;;;;;;;;5011825;28;20129;-82
2022/05/27 00:27:57;;;;;;;14.45;5.22;;;;;;;;;;4994554;28;20789;-81
2022/05/27 00:30:25;;;;;;;9.60;5.68;;;;;;;;;;5011145;28;20096;-79
2022/05/27 00:32:52;;;;;;;8.50;4.85;;;;;;;;;;5011056;28;20112;-84
2022/05/27 00:35:19;;;;;;;7.72;5.72;;;;;;;;;;5012538;28;20177;-84
2022/05/27 00:37:47;;;;;;;10.80;5.38;;;;;;;;;;4994328;28;20077;-83
2022/05/27 00:40:14;;;;;;;8.95;5.60;;;;;;;;;;5011639;28;20081;-83
2022/05/27 00:42:42;;;;;;;7.47;5.53;;;;;;;;;;5002867;28;20103;-83
2022/05/27 00:45:17;;;;;;;9.55;5.57;;;;;;;;;;5010958;28;20104;-84
2022/05/27 00:47:45;;;;;;;15.15;5.43;;;;;;;;;;5010437;28;20138;-84
2022/05/27 00:50:15;;;;;;;16.58;5.07;;;;;;;;;;5011834;28;20148;-83
2022/05/27 00:52:42;;;;;;;13.30;6.88;;;;;;;;;;5010739;28;20133;-83
2022/05/27 00:55:12;;;;;;;12.85;5.63;;;;;;;;;;5011494;28;20120;-82
2022/05/27 00:57:48;;;;;;;14.40;5.32;;;;;;;;;;5011646;28;20458;-82
2022/05/27 01:00:17;;;;;;;9.70;5.30;;;;;;;;;;5011639;28;20064;-86
2022/05/27 01:02:45;;;;;;;10.50;4.70;;;;;;;;;;5003783;28;20080;-84
2022/05/27 01:05:13;;;;;;;10.70;5.25;;;;;;;;;;5011506;28;20078;-84
2022/05/27 01:07:41;;;;;;;8.38;4.90;;;;;;;;;;5009483;28;20085;-84
2022/05/27 01:10:10;;;;;;;15.35;6.15;;;;;;;;;;5011040;28;20099;-84
2022/05/27 01:12:56;;;;;;;21.73;5.05;;;;;;;;;;4993670;28;20141;-84
2022/05/27 01:15:30;;;;;;;11.95;5.18;;;;;;;;;;5011287;28;20085;-83
2022/05/27 01:18:13;;;;;;;14.80;4.90;;;;;;;;;;5011465;28;20104;-83
2022/05/27 01:20:57;;;;;;;14.02;4.95;;;;;;;;;;5010793;28;20042;-84
2022/05/27 01:23:24;;;;;;;14.32;4.57;;;;;;;;;;4995027;28;20078;-84
2022/05/27 01:26:08;;;;;;;11.30;4.85;;;;;;;;;;4993692;28;20107;-84
2022/05/27 01:28:45;;;;;;;15.52;5.68;;;;;;;;;;5009770;28;20130;-84
2022/05/27 01:31:20;;;;;;;11.23;5.53;;;;;;;;;;5010986;28;20173;-84
2022/05/27 01:33:47;;;;;;;12.65;4.95;;;;;;;;;;4991120;28;20109;-84
2022/05/27 01:36:18;;;;;;;11.35;5.38;;;;;;;;;;5007327;28;20077;-84
2022/05/27 01:38:57;;;;;;;15.32;5.40;;;;;;;;;;4993919;28;20074;-83
2022/05/27 01:41:27;;;;;;;16.13;5.43;;;;;;;;;;5006729;28;20571;-84
2022/05/27 01:43:59;;;;;;;15.73;5.32;;;;;;;;;;5011114;28;20687;-83
2022/05/27 01:46:30;;;;;;;12.73;5.28;;;;;;;;;;5010478;28;20050;-84
2022/05/27 01:49:10;;;;;;;15.50;6.03;;;;;;;;;;5010786;28;20058;-84
2022/05/27 01:51:43;;;;;;;14.23;5.75;;;;;;;;;;5010920;28;20119;-83
2022/05/27 01:54:18;;;;;;;19.63;5.70;;;;;;;;;;5009827;28;20494;-84
2022/05/27 01:56:50;;;;;;;12.35;6.38;;;;;;;;;;5010141;28;20787;-84
2022/05/27 01:59:30;;;;;;;14.23;5.32;;;;;;;;;;5000155;28;20119;-83
2022/05/27 02:02:00;;;;;;;15.38;5.53;;;;;;;;;;5010056;28;20137;-83
2022/05/27 02:04:33;;;;;;;25.05;6.68;;;;;;;;;;5009295;28;20469;-85
2022/05/27 02:07:02;;;;;;;13.10;5.38;;;;;;;;;;5009254;28;20129;-84
2022/05/27 02:09:33;;;;;;;12.27;5.32;;;;;;;;;;4992906;28;20104;-84
2022/05/27 02:12:03;;;;;;;17.15;5.78;;;;;;;;;;5010521;28;20461;-84
2022/05/27 02:14:44;;;;;;;19.15;6.00;;;;;;;;;;4993547;28;20133;-84
2022/05/27 02:17:13;;;;;;;12.93;4.70;;;;;;;;;;4993244;28;20073;-84
2022/05/27 02:20:00;;;;;;;16.23;5.50;;;;;;;;;;4992770;28;20566;-84
2022/05/27 02:22:33;;;;;;;18.90;5.00;;;;;;;;;;4999836;28;20081;-84
2022/05/27 02:25:02;;;;;;;23.77;5.30;;;;;;;;;;5010067;28;20073;-84
2022/05/27 02:27:38;;;;;;;15.23;4.78;;;;;;;;;;5010031;28;20140;-83
2022/05/27 02:30:07;;;;;;;18.58;4.97;;;;;;;;;;5010296;28;20133;-83
2022/05/27 02:32:39;;;;;;;23.75;5.00;;;;;;;;;;4993149;28;20603;-83
2022/05/27 02:35:08;;;;;;;15.63;5.07;;;;;;;;;;4993103;28;20549;-83
2022/05/27 02:37:49;;;;;;;23.52;5.75;;;;;;;;;;4993124;28;20113;-83
2022/05/27 02:40:31;;;;;;;15.55;5.05;;;;;;;;;;5002418;28;20073;-82
2022/05/27 02:43:05;;;;;;;17.17;4.90;;;;;;;;;;5012842;28;20089;-82
2022/05/27 02:45:35;;;;;;;12.63;5.32;;;;;;;;;;5012291;28;20046;-82
2022/05/27 02:48:08;;;;;;;18.20;5.00;;;;;;;;;;5012501;28;20057;-82
2022/05/27 02:50:46;;;;;;;21.13;4.53;;;;;;;;;;5013287;28;20129;-82
2022/05/27 02:53:16;;;;;;;21.88;4.80;;;;;;;;;;5013507;28;20108;-82
2022/05/27 02:55:54;;;;;;;21.83;5.00;;;;;;;;;;5013493;28;20511;-82
2022/05/27 02:58:22;;;;;;;12.13;4.90;;;;;;;;;;5013247;28;20163;-82
2022/05/27 03:00:49;;;;;;;14.45;5.53;;;;;;;;;;5013251;28;20148;-83
2022/05/27 03:03:17;;;;;;;21.70;4.93;;;;;;;;;;5013595;28;20439;-83
2022/05/27 03:05:44;;;;;;;21.98;5.05;;;;;;;;;;4995902;28;20143;-83
2022/05/27 03:08:30;;;;;;;16.67;4.28;;;;;;;;;;5012835;28;20741;-82
2022/05/27 03:11:02;;;;;;;19.02;5.40;;;;;;;;;;5013401;28;20466;-82
2022/05/27 03:13:42;;;;;;;13.00;3.88;;;;;;;;;;4995726;28;20137;-83
2022/05/27 03:16:09;;;;;;;12.75;4.85;;;;;;;;;;4995709;28;20084;-83
2022/05/27 03:18:48;;;;;;;19.05;4.25;;;;;;;;;;5012672;28;20045;-83
2022/05/27 03:21:30;;;;;;;16.13;4.32;;;;;;;;;;4995289;28;20136;-82
2022/05/27 03:24:15;;;;;;;14.82;3.60;;;;;;;;;;5002713;28;20120;-82
2022/05/27 03:26:51;;;;;;;15.05;3.65;;;;;;;;;;5012599;28;20128;-82
2022/05/27 03:29:44;;;;;;;11.63;4.25;;;;;;;;;;4995794;28;20142;-82
2022/05/27 03:32:18;;;;;;;20.92;4.13;;;;;;;;;;4995801;28;20058;-82
2022/05/27 03:34:50;;;;;;;16.23;3.87;;;;;;;;;;5012744;28;20137;-83
2022/05/27 03:37:26;;;;;;;16.73;4.30;;;;;;;;;;5000266;28;20054;-83
2022/05/27 03:40:02;;;;;;;19.25;3.92;;;;;;;;;;4992131;28;20085;-83
2022/05/27 03:42:30;;;;;;;10.50;3.08;;;;;;;;;;5003436;28;20089;-84
2022/05/27 03:45:02;;;;;;;10.77;3.75;;;;;;;;;;5013034;28;20145;-83
2022/05/27 03:47:29;;;;;;;19.88;4.18;;;;;;;;;;5001344;28;20050;-83
2022/05/27 03:49:57;;;;;;;10.93;3.45;;;;;;;;;;5012546;28;20733;-82
2022/05/27 03:52:26;;;;;;;19.40;3.67;;;;;;;;;;5011416;28;20121;-82
2022/05/27 03:54:53;;;;;;;19.50;3.90;;;;;;;;;;4995018;28;20109;-82
2022/05/27 03:57:21;;;;;;;16.77;2.60;;;;;;;;;;5011875;28;20054;-82
2022/05/27 03:59:48;;;;;;;12.43;3.15;;;;;;;;;;4994920;28;20053;-82
2022/05/27 04:02:15;;;;;;;9.32;2.58;;;;;;;;;;5009584;28;20430;-83
2022/05/27 04:04:42;;;;;;;18.23;2.95;;;;;;;;;;5011462;28;20060;-82
2022/05/27 04:07:10;;;;;;;15.02;2.78;;;;;;;;;;5010538;28;20050;-82
2022/05/27 04:09:37;;;;;;;16.38;2.97;;;;;;;;;;4994662;28;20188;-82
2022/05/27 04:12:05;;;;;;;17.85;2.78;;;;;;;;;;5012002;28;20084;-82
2022/05/27 04:14:32;;;;;;;12.65;2.25;;;;;;;;;;5012263;28;20045;-82
2022/05/27 04:19:45;;;;;;;11.23;2.17;;;;;;;;;;5011285;28;20050;-82
2022/05/27 04:22:12;;;;;;;9.95;2.45;;;;;;;;;;4999705;28;20046;-82
2022/05/27 04:24:39;;;;;;;13.18;2.75;;;;;;;;;;5011944;28;20085;-82
2022/05/27 04:27:11;;;;;;;11.82;2.97;;;;;;;;;;5011274;28;20778;-82
2022/05/27 04:29:39;;;;;;;19.85;3.33;;;;;;;;;;5010044;28;20752;-82
2022/05/27 04:32:06;;;;;;;14.15;2.65;;;;;;;;;;5011630;28;20081;-82
2022/05/27 04:34:34;;;;;;;9.82;2.40;;;;;;;;;;4994375;28;20132;-82
2022/05/27 04:37:01;;;;;;;12.20;2.70;;;;;;;;;;4997886;28;20563;-81
2022/05/27 04:39:28;;;;;;;10.05;2.30;;;;;;;;;;5011494;28;20093;-82
2022/05/27 04:41:56;;;;;;;143.13;47.25;;;;;;;;;;5010870;28;20108;-82
2022/05/27 04:44:23;;;;;;;22.33;3.13;;;;;;;;;;5011461;28;20054;-82
2022/05/27 04:46:50;;;;;;;16.42;2.70;;;;;;;;;;5011301;28;20078;-82
2022/05/27 04:52:05;;;;;;;13.27;2.88;;;;;;;;;;5011162;28;20082;-81
2022/05/27 04:54:32;;;;;;;18.02;3.47;;;;;;;;;;4993805;28;20060;-82
2022/05/27 04:57:00;;;;;;;17.38;4.15;;;;;;;;;;5011042;28;20077;-82
2022/05/27 04:59:27;;;;;;;17.77;2.20;;;;;;;;;;4993505;28;20050;-82
2022/05/27 05:01:54;;;;;;;18.15;2.60;;;;;;;;;;5010761;28;20479;-82
2022/05/27 05:04:22;;;;;;;11.10;2.20;;;;;;;;;;4993650;28;20089;-82
2022/05/27 05:06:50;;;;;;;24.20;2.40;;;;;;;;;;5010204;28;20836;-82
2022/05/27 05:09:17;;;;;;;13.75;2.58;;;;;;;;;;5011780;28;20078;-82
2022/05/27 05:11:45;;;;;;;16.90;2.40;;;;;;;;;;5010667;28;20525;-82
2022/05/27 05:14:12;;;;;;;11.75;2.65;;;;;;;;;;5011400;28;20053;-82
2022/05/27 05:16:39;;;;;;;18.42;2.92;;;;;;;;;;4992863;28;20081;-82
2022/05/27 05:19:06;;;;;;;13.70;2.53;;;;;;;;;;5010710;28;20050;-82
2022/05/27 05:21:34;;;;;;;12.60;2.50;;;;;;;;;;5010622;28;20050;-82
2022/05/27 05:24:01;;;;;;;11.75;2.63;;;;;;;;;;4993899;28;20081;-81
2022/05/27 05:26:28;;;;;;;14.52;2.00;;;;;;;;;;5010545;28;20077;-81
2022/05/27 05:28:55;;;;;;;21.85;2.83;;;;;;;;;;4994049;28;20096;-80
2022/05/27 05:31:22;;;;;;;21.13;1.98;;;;;;;;;;5010592;28;20081;-82
2022/05/27 05:33:50;;;;;;;15.30;3.38;;;;;;;;;;5010390;28;20476;-81
2022/05/27 05:36:17;;;;;;;19.42;3.97;;;;;;;;;;5010630;28;20092;-81
2022/05/27 05:38:44;;;;;;;18.27;2.45;;;;;;;;;;5011133;28;20054;-81
2022/05/27 05:41:11;;;;;;;17.55;2.80;;;;;;;;;;5010650;28;20089;-81
2022/05/27 05:43:38;;;;;;;19.52;2.42;;;;;;;;;;4993354;28;20096;-82
2022/05/27 05:46:06;;;;;;;14.05;2.17;;;;;;;;;;5009666;28;20052;-82
2022/05/27 05:48:34;;;;;;;15.30;2.20;;;;;;;;;;5010251;28;20136;-81
2022/05/27 05:51:01;;;;;;;21.60;4.45;;;;;;;;;;5010055;28;20116;-81
2022/05/27 05:53:28;;;;;;;18.10;2.53;;;;;;;;;;5010131;28;20096;-81
2022/05/27 05:55:55;;;;;;;20.63;2.60;;;;;;;;;;5010630;28;20081;-80
2022/05/27 05:58:22;;;;;;;11.75;2.30;;;;;;;;;;4992627;28;20094;-80
2022/05/27 06:00:49;;;;;;;18.33;2.10;;;;;;;;;;4992396;28;20096;-81
2022/05/27 06:03:17;;;;;;;22.70;2.72;;;;;;;;;;5010642;28;20097;-80
2022/05/27 06:05:44;;;;;;;11.20;2.30;;;;;;;;;;5010723;28;20081;-81
2022/05/27 06:08:11;;;;;;;9.13;1.95;;;;;;;;;;5004474;28;20132;-81
2022/05/27 06:10:38;;;;;;;12.50;2.55;;;;;;;;;;5009807;28;20057;-81
2022/05/27 06:13:05;;;;;;;13.73;2.58;;;;;;;;;;5009306;28;20100;-81
2022/05/27 06:15:33;;;;;;;18.48;3.55;;;;;;;;;;4994423;28;20096;-81
2022/05/27 06:18:00;;;;;;;21.38;2.58;;;;;;;;;;5012786;28;20081;-80
2022/05/27 06:20:28;;;;;;;16.48;2.88;;;;;;;;;;4993488;28;20080;-78
2022/05/27 06:22:55;;;;;;;18.60;3.38;;;;;;;;;;5011580;28;20046;-78
2022/05/27 06:25:22;;;;;;;17.15;3.38;;;;;;;;;;5012689;28;20045;-79
2022/05/27 06:27:50;;;;;;;14.15;2.42;;;;;;;;;;5010354;28;20490;-78
2022/05/27 06:36:05;;;;;;;;;;;;;;;;;;5010620;28;20100;-80
2022/05/27 06:38:32;;;;;;;14.02;2.05;;;;;;;;;;5011780;28;20020;-79
2022/05/27 06:41:00;;;;;;;16.92;2.05;;;;;;;;;;5011565;28;20081;-78
2022/05/27 06:43:27;;;;;;;10.10;1.75;;;;;;;;;;5011012;28;20157;-78
2022/05/27 06:45:54;;;;;;;15.52;2.70;;;;;;;;;;5012117;28;20133;-78
2022/05/27 06:48:21;;;;;;;10.20;2.00;;;;;;;;;;5011320;28;20065;-81
2022/05/27 06:50:49;;;;;;;13.23;2.33;;;;;;;;;;5011406;28;20053;-80
2022/05/27 06:53:16;;;;;;;14.68;2.28;;;;;;;;;;5012386;28;20116;-80
2022/05/27 06:55:48;;;;;;;15.38;2.83;;;;;;;;;;4991977;28;20081;-80
2022/05/27 06:58:21;;;;;;;14.05;2.33;;;;;;;;;;4991493;28;20057;-79
2022/05/27 07:00:48;;;;;;;14.13;2.03;;;;;;;;;;4991727;28;20061;-78
2022/05/27 07:03:15;;;;;;;9.27;2.08;;;;;;;;;;5008775;28;20052;-79
2022/05/27 07:05:43;;;;;;;5.95;1.75;;;;;;;;;;4995499;28;20143;-79
2022/05/27 07:08:10;;;;;;;10.45;2.20;;;;;;;;;;5008603;28;20088;-80
2022/05/27 07:10:37;;;;;;;13.88;2.17;;;;;;;;;;5009239;28;20156;-78
2022/05/27 07:13:07;;;;;;;16.48;2.22;;;;;;;;;;5011550;28;20760;-81
2022/05/27 07:15:34;;;;;;;8.82;1.70;;;;;;;;;;5011632;28;20078;-79
2022/05/27 07:18:04;;;;;;;11.45;2.22;;;;;;;;;;5004483;28;20165;-79
2022/05/27 07:20:33;;;;;;;9.98;2.55;;;;;;;;;;5008219;28;20627;-79
2022/05/27 07:23:00;;;;;;;11.13;2.10;;;;;;;;;;5008430;28;20053;-78
2022/05/27 07:25:27;;;;;;;11.07;2.10;;;;;;;;;;5008047;28;20502;-79
2022/05/27 07:27:54;;;;;;;13.63;2.47;;;;;;;;;;5002262;28;20132;-78
2022/05/27 07:30:21;;;;;;;6.90;1.83;;;;;;;;;;5008734;28;20459;-79
2022/05/27 07:32:49;;;;;;;11.02;2.00;;;;;;;;;;5009537;28;20045;-79
2022/05/27 07:35:16;;;;;;;12.23;1.92;;;;;;;;;;4991914;28;20479;-79
2022/05/27 07:37:43;;;;;;;9.43;1.55;;;;;;;;;;5008721;28;20077;-79
2022/05/27 07:40:10;;;;;;;6.78;1.63;;;;;;;;;;5009276;28;20092;-79
2022/05/27 07:42:38;;;;;;;9.82;1.95;;;;;;;;;;4992891;28;20141;-78
2022/05/27 07:45:13;;;;;;;6.97;1.77;;;;;;;;;;5009622;28;20072;-78
2022/05/27 07:47:40;;;;;;;9.60;1.92;;;;;;;;;;5008868;28;20049;-78
2022/05/27 07:50:08;;;;;;;6.72;1.48;;;;;;;;;;5008925;28;20132;-78
2022/05/27 07:52:36;;;;;;;9.45;1.67;;;;;;;;;;5009647;28;20053;-78
2022/05/27 07:55:04;;;;;;;10.68;1.52;;;;;;;;;;5009580;28;20100;-77
2022/05/27 07:57:32;;;;;;;11.10;2.20;;;;;;;;;;5009168;28;20046;-79
2022/05/27 08:00:00;;;;;;;5.25;1.58;;;;;;;;;;5009297;28;20502;-78
2022/05/27 08:02:28;;;;;;;9.50;1.60;;;;;;;;;;5008927;28;20108;-79
2022/05/27 08:04:55;;;;;;;9.30;1.75;;;;;;;;;;5010272;28;20073;-80
2022/05/27 08:07:23;;;;;;;15.50;1.67;;;;;;;;;;5010933;28;20058;-81
2022/05/27 08:09:50;;;;;;;10.70;1.60;;;;;;;;;;5011116;28;20073;-80
2022/05/27 08:12:17;;;;;;;9.10;1.83;;;;;;;;;;5011129;28;20046;-79
2022/05/27 08:14:44;;;;;;;13.57;2.13;;;;;;;;;;5010857;28;20125;-81
2022/05/27 08:17:12;;;;;;;5.43;1.20;;;;;;;;;;4993499;28;20049;-81
2022/05/27 08:19:39;;;;;;;11.52;1.85;;;;;;;;;;5011027;28;20466;-79
2022/05/27 08:22:06;;;;;;;8.30;1.88;;;;;;;;;;4994448;28;20080;-79
2022/05/27 08:24:33;;;;;;;7.22;1.70;;;;;;;;;;5008221;28;20054;-78
2022/05/27 08:27:01;;;;;;;7.82;1.95;;;;;;;;;;5007355;28;20096;-78
2022/05/27 08:29:28;;;;;;;10.25;1.83;;;;;;;;;;4990318;28;20085;-78
2022/05/27 08:31:56;;;;;;;11.00;1.85;;;;;;;;;;5010501;28;20123;-80
2022/05/27 08:39:54;;;;;;;12.15;1.98;;;;;;;;;;5009493;28;20398;-80
2022/05/27 08:42:31;;;;;;;7.80;2.08;;;;;;;;;;4992373;28;20078;-80
2022/05/27 08:45:17;;;;;;;9.90;1.92;;;;;;;;;;5008337;28;20848;-80
2022/05/27 08:47:46;;;;;;;11.27;1.83;;;;;;;;;;5001049;28;20084;-80
2022/05/27 08:50:25;;;;;;;6.85;2.00;;;;;;;;;;5008772;28;20057;-80
2022/05/27 08:53:10;;;;;;;12.30;2.03;;;;;;;;;;5006907;28;20080;-79
2022/05/27 09:01:18;;;;;;;11.98;2.15;;;;;;;;;;5009215;28;20042;-80
2022/05/27 09:03:47;;;;;;;7.95;1.60;;;;;;;;;;5009412;28;20780;-79
2022/05/27 09:06:15;;;;;;;9.13;1.75;;;;;;;;;;4994048;28;20129;-83
2022/05/27 09:08:42;;;;;;;18.15;2.10;;;;;;;;;;4995146;28;20486;-87
2022/05/27 09:11:22;;;;;;;13.50;2.65;;;;;;;;;;5011087;28;20085;-85
2022/05/27 09:14:09;;;;;;;14.38;2.00;;;;;;;;;;4993856;28;20079;-86
2022/05/27 09:16:49;;;;;;;15.82;2.00;;;;;;;;;;4993664;28;20475;-84
2022/05/27 09:19:41;;;;;;;6.47;1.52;;;;;;;;;;5010928;28;20111;-84
2022/05/27 09:22:14;;;;;;;9.18;2.40;;;;;;;;;;5010175;28;20054;-84
2022/05/27 09:24:47;;;;;;;12.23;1.90;;;;;;;;;;5010538;28;20453;-84
2022/05/27 09:27:36;;;;;;;11.00;1.73;;;;;;;;;;5006591;28;20081;-82
2022/05/27 09:30:08;;;;;;;8.85;1.98;;;;;;;;;;5009349;28;20062;-82
2022/05/27 09:32:54;;;;;;;5.97;2.20;;;;;;;;;;5010545;28;20132;-83
2022/05/27 09:35:27;;;;;;;9.50;1.73;;;;;;;;;;4992819;28;20515;-83
2022/05/27 09:38:11;;;;;;;10.02;2.13;;;;;;;;;;5010308;28;20053;-82
2022/05/27 09:40:46;;;;;;;7.60;1.70;;;;;;;;;;5009240;28;20131;-82
2022/05/27 09:43:33;;;;;;;7.97;1.85;;;;;;;;;;4992486;28;20140;-82
2022/05/27 09:46:02;;;;;;;10.80;2.53;;;;;;;;;;4992425;28;20054;-81
2022/05/27 09:48:29;;;;;;;10.82;2.08;;;;;;;;;;5009346;28;20115;-82
2022/05/27 09:50:59;;;;;;;12.50;2.13;;;;;;;;;;5013737;28;20494;-81
2022/05/27 09:53:32;;;;;;;17.38;1.92;;;;;;;;;;5001142;28;20049;-81
2022/05/27 09:56:04;;;;;;;14.77;2.22;;;;;;;;;;5013700;28;20140;-79
2022/05/27 09:58:36;;;;;;;8.85;1.58;;;;;;;;;;4995728;28;20068;-78
2022/05/27 10:01:18;;;;;;;5.15;1.05;;;;;;;;;;5013348;28;20069;-81
2022/05/27 10:03:46;;;;;;;6.03;1.58;;;;;;;;;;5013113;28;20649;-81
2022/05/27 10:06:19;;;;;;;5.75;0.95;;;;;;;;;;5013486;28;20760;-81
2022/05/27 10:08:57;;;;;;;5.85;1.35;;;;;;;;;;5012478;28;20743;-80
2022/05/27 10:11:26;;;;;;;6.63;1.55;;;;;;;;;;5011544;28;20142;-80
2022/05/27 10:14:07;;;;;;;7.30;1.40;;;;;;;;;;5011538;28;20085;-80
2022/05/27 10:16:35;;;;;;;5.93;1.63;;;;;;;;;;5012117;28;20129;-81
2022/05/27 10:19:07;;;;;;;7.25;1.80;;;;;;;;;;4994815;28;20089;-80
2022/05/27 10:21:48;;;;;;;13.18;1.40;;;;;;;;;;4993792;28;20124;-79
2022/05/27 10:24:17;;;;;;;12.05;1.15;;;;;;;;;;5011416;28;20091;-79
2022/05/27 10:26:44;;;;;;;3.47;0.85;;;;;;;;;;5010808;28;20078;-77
2022/05/27 10:29:13;;;;;;;7.13;0.60;;;;;;;;;;5011967;28;20153;-80
2022/05/27 10:31:51;;;;;;;4.93;0.57;;;;;;;;;;4995468;28;20092;-83
2022/05/27 10:34:38;;;;;;;7.28;0.90;;;;;;;;;;5011449;28;20076;-83
2022/05/27 10:37:06;;;;;;;10.00;1.05;;;;;;;;;;4992081;28;20081;-83
2022/05/27 10:39:34;;;;;;;6.13;1.30;;;;;;;;;;5014469;28;20084;-82
2022/05/27 10:42:01;;;;;;;12.20;2.03;;;;;;;;;;5006685;28;20133;-84
2022/05/27 10:44:31;;;;;;;4.05;1.25;;;;;;;;;;5011563;28;20069;-84
2022/05/27 10:46:59;;;;;;;4.75;1.50;;;;;;;;;;5012956;28;20054;-83
2022/05/27 10:49:45;;;;;;;13.43;2.28;;;;;;;;;;5013249;28;20129;-83
2022/05/27 10:52:33;;;;;;;11.77;1.85;;;;;;;;;;5011304;28;20156;-82
2022/05/27 10:55:00;;;;;;;6.05;1.20;;;;;;;;;;5003005;28;20109;-82
2022/05/27 11:03:49;;;;;;;8.63;1.13;;;;;;;;;;5012113;28;20416;-82
2022/05/27 11:06:24;;;;;;;5.47;0.93;;;;;;;;;;5012869;28;20112;-82
2022/05/27 11:09:01;;;;;;;7.07;2.65;;;;;;;;;;4995268;28;20125;-81
2022/05/27 11:11:47;;;;;;;6.65;1.00;;;;;;;;;;4995352;28;20137;-82
2022/05/27 11:17:23;;;;;;;6.55;1.25;;;;;;;;;;5012555;28;20081;-82
2022/05/27 11:20:25;;;;;;;4.47;0.95;;;;;;;;;;4995983;28;20085;-81
2022/05/27 11:23:05;;;;;;;4.07;0.52;;;;;;;;;;4995146;28;20121;-81
2022/05/27 11:25:40;;;;;;;4.70;0.95;;;;;;;;;;5004679;28;20130;-81
2022/05/27 11:28:26;;;;;;;8.50;0.70;;;;;;;;;;5012476;28;20131;-83
2022/05/27 11:30:53;;;;;;;3.17;0.60;;;;;;;;;;5012039;28;20831;-82
2022/05/27 11:33:34;;;;;;;6.30;1.30;;;;;;;;;;4994960;28;20512;-82
2022/05/27 11:36:13;;;;;;;6.88;1.17;;;;;;;;;;5012998;28;20053;-82
2022/05/27 11:38:56;;;;;;;6.53;1.27;;;;;;;;;;4994822;28;20038;-81
2022/05/27 11:41:27;;;;;;;13.57;1.45;;;;;;;;;;4994983;28;20773;-81
2022/05/27 11:43:58;;;;;;;6.68;1.73;;;;;;;;;;5013412;28;20491;-82
2022/05/27 11:46:40;;;;;;;9.38;1.42;;;;;;;;;;4975801;28;20162;-82
2022/05/27 11:49:11;;;;;;;9.73;2.10;;;;;;;;;;4994061;28;20054;-82
2022/05/27 11:51:38;;;;;;;11.02;2.05;;;;;;;;;;5011746;28;20463;-82
2022/05/27 11:54:24;;;;;;;6.82;1.63;;;;;;;;;;5011906;28;20073;-81
2022/05/27 11:56:58;;;;;;;8.05;1.65;;;;;;;;;;4995179;28;20599;-80
2022/05/27 11:59:31;;;;;;;12.93;2.25;;;;;;;;;;5008544;28;20474;-79
2022/05/27 12:02:01;;;;;;;9.50;1.75;;;;;;;;;;5009947;28;20057;-78
2022/05/27 12:04:34;;;;;;;18.80;2.58;;;;;;;;;;4993760;28;20796;-85
2022/05/27 12:07:09;;;;;;;14.93;1.98;;;;;;;;;;5011990;28;20136;-84
2022/05/27 12:09:38;;;;;;;16.50;2.47;;;;;;;;;;5008202;28;20112;-83
2022/05/27 12:12:07;;;;;;;11.02;2.30;;;;;;;;;;5011029;28;20427;-82
2022/05/27 12:14:38;;;;;;;14.43;2.85;;;;;;;;;;5012122;28;20078;-82
2022/05/27 12:17:14;;;;;;;13.40;2.05;;;;;;;;;;4997618;28;20523;-80
2022/05/27 12:19:44;;;;;;;8.38;2.30;;;;;;;;;;5011407;28;20153;-81
2022/05/27 12:22:12;;;;;;;16.10;2.40;;;;;;;;;;5011385;28;20053;-78
2022/05/27 12:24:41;;;;;;;7.53;0.95;;;;;;;;;;5011091;28;20096;-84
2022/05/27 12:27:11;;;;;;;12.80;0.98;;;;;;;;;;5011121;28;20380;-83
2022/05/27 12:29:40;;;;;;;6.47;1.48;;;;;;;;;;4994611;28;20141;-82
2022/05/27 12:32:08;;;;;;;7.00;1.45;;;;;;;;;;5011037;28;20077;-80
2022/05/27 12:34:36;;;;;;;7.38;2.20;;;;;;;;;;4993917;28;20084;-79
2022/05/27 12:37:21;;;;;;;10.30;1.75;;;;;;;;;;5010166;28;20081;-78
2022/05/27 12:39:49;;;;;;;6.18;1.42;;;;;;;;;;5010683;28;20074;-79
2022/05/27 12:42:18;;;;;;;6.90;1.30;;;;;;;;;;5010548;28;20057;-78
2022/05/27 12:44:47;;;;;;;11.35;1.90;;;;;;;;;;5010732;28;20133;-80
2022/05/27 12:47:16;;;;;;;13.05;1.95;;;;;;;;;;4992958;28;20050;-78
2022/05/27 12:49:45;;;;;;;7.65;1.10;;;;;;;;;;5010375;28;20073;-78
2022/05/27 12:52:31;;;;;;;8.57;1.60;;;;;;;;;;5010260;28;20081;-79
2022/05/27 12:55:00;;;;;;;10.32;2.42;;;;;;;;;;5001407;28;20129;-81
2022/05/27 13:03:30;;;;;;;3.72;1.00;;;;;;;;;;5010975;28;20088;-81
2022/05/27 13:06:15;;;;;;;8.60;1.15;;;;;;;;;;4993985;28;20136;-79
2022/05/27 13:08:52;;;;;;;6.95;0.88;;;;;;;;;;5010673;28;20057;-80
2022/05/27 13:11:22;;;;;;;8.32;1.10;;;;;;;;;;5010868;28;20057;-78
2022/05/27 13:13:51;;;;;;;4.70;0.90;;;;;;;;;;5010093;28;20129;-78
2022/05/27 13:16:41;;;;;;;4.78;0.85;;;;;;;;;;4995402;28;20652;-78
2022/05/27 13:19:09;;;;;;;5.72;1.20;;;;;;;;;;4992011;28;20050;-77
2022/05/27 13:21:56;;;;;;;6.28;1.17;;;;;;;;;;5008560;28;20057;-78
2022/05/27 13:24:26;;;;;;;8.43;1.40;;;;;;;;;;5007702;28;20124;-78
2022/05/27 13:26:59;;;;;;;8.02;1.25;;;;;;;;;;5008393;28;20167;-79
2022/05/27 13:29:38;;;;;;;9.02;1.20;;;;;;;;;;5008677;28;20908;-78
2022/05/27 13:32:11;;;;;;;11.07;2.70;;;;;;;;;;5008706;28;20084;-79
2022/05/27 13:34:44;;;;;;;7.75;1.67;;;;;;;;;;5008906;28;20127;-78
2022/05/27 13:37:21;;;;;;;7.18;1.75;;;;;;;;;;5008237;28;20092;-79
2022/05/27 13:40:04;;;;;;;8.68;1.70;;;;;;;;;;5005015;28;20084;-78
2022/05/27 13:42:33;;;;;;;9.63;2.00;;;;;;;;;;5007864;28;20081;-78
2022/05/27 13:45:02;;;;;;;7.47;2.20;;;;;;;;;;4992425;28;20081;-80
2022/05/27 13:47:52;;;;;;;7.55;1.73;;;;;;;;;;5003423;28;20143;-83
2022/05/27 13:50:28;;;;;;;11.70;2.63;;;;;;;;;;5009163;28;20054;-80
2022/05/27 13:52:55;;;;;;;13.20;2.00;;;;;;;;;;5010424;28;20054;-80
2022/05/27 13:55:27;;;;;;;7.75;1.80;;;;;;;;;;5008842;28;20149;-80
2022/05/27 13:57:56;;;;;;;9.18;1.85;;;;;;;;;;5007726;28;20096;-79
2022/05/27 14:00:24;;;;;;;15.23;2.35;;;;;;;;;;5008784;28;20076;-79
2022/05/27 14:02:52;;;;;;;6.32;1.60;;;;;;;;;;5008410;28;20104;-81
2022/05/27 14:05:19;;;;;;;13.43;2.25;;;;;;;;;;4991472;28;20081;-80
2022/05/27 14:07:49;;;;;;;6.88;1.30;;;;;;;;;;4992791;28;20136;-79
2022/05/27 14:10:20;;;;;;;8.13;1.35;;;;;;;;;;5008077;28;20088;-78
2022/05/27 14:12:48;;;;;;;12.20;1.67;;;;;;;;;;5004335;28;20139;-79
2022/05/27 14:15:17;;;;;;;6.85;1.08;;;;;;;;;;5006543;28;20085;-79
2022/05/27 14:17:47;;;;;;;6.05;1.23;;;;;;;;;;5006326;28;20520;-79
2022/05/27 14:20:25;;;;;;;5.05;0.90;;;;;;;;;;5007897;28;20165;-79
2022/05/27 14:22:54;;;;;;;13.77;1.92;;;;;;;;;;4990743;28;20120;-78
2022/05/27 14:25:32;;;;;;;8.65;1.60;;;;;;;;;;4990900;28;20120;-78
2022/05/27 14:28:00;;;;;;;7.75;2.40;;;;;;;;;;4990759;28;20422;-78
2022/05/27 14:30:33;;;;;;;12.93;1.17;;;;;;;;;;5007579;28;20157;-78
2022/05/27 14:33:01;;;;;;;9.27;1.77;;;;;;;;;;4991749;28;20125;-79
2022/05/27 14:35:30;;;;;;;12.57;1.77;;;;;;;;;;5011213;28;20125;-81
2022/05/27 14:37:57;;;;;;;3.22;1.13;;;;;;;;;;5013310;28;20077;-80
2022/05/27 14:40:32;;;;;;;9.02;2.25;;;;;;;;;;5013529;28;20104;-80
2022/05/27 14:43:00;;;;;;;6.28;1.00;;;;;;;;;;4996370;28;20057;-80
2022/05/27 14:45:41;;;;;;;6.72;1.25;;;;;;;;;;4995460;28;20503;-80
2022/05/27 14:48:25;;;;;;;8.10;2.58;;;;;;;;;;5011426;28;20054;-81
2022/05/27 14:50:52;;;;;;;4.35;1.48;;;;;;;;;;5012946;28;20085;-81
2022/05/27 14:53:20;;;;;;;6.65;1.13;;;;;;;;;;4995966;28;20049;-81
2022/05/27 14:55:54;;;;;;;8.85;1.08;;;;;;;;;;5012129;28;20092;-81
2022/05/27 14:58:27;;;;;;;7.70;1.63;;;;;;;;;;5011698;28;20155;-79
2022/05/27 15:00:54;;;;;;;6.40;1.25;;;;;;;;;;5010621;28;20756;-80
2022/05/27 15:03:27;;;;;;;10.43;2.70;;;;;;;;;;5011201;28;20056;-81
2022/05/27 15:05:54;;;;;;;9.65;1.38;;;;;;;;;;5011773;28;20136;-80
2022/05/27 15:08:22;;;;;;;6.40;1.65;;;;;;;;;;5009572;28;20175;-78
2022/05/27 15:11:04;;;;;;;10.95;1.90;;;;;;;;;;4993396;28;20441;-79
2022/05/27 15:13:53;;;;;;;12.60;1.70;;;;;;;;;;5011154;28;20081;-79
2022/05/27 15:16:23;;;;;;;8.40;1.75;;;;;;;;;;5011395;28;20141;-80
2022/05/27 15:19:01;;;;;;;7.43;1.90;;;;;;;;;;4995329;28;20054;-80
2022/05/27 15:21:33;;;;;;;13.82;2.25;;;;;;;;;;4993924;28;20116;-80
2022/05/27 15:24:05;;;;;;;11.35;1.40;;;;;;;;;;4994778;28;20078;-80
2022/05/27 15:35:02;;;;;;;9.50;1.45;;;;;;;;;;5011836;28;20791;-81
2022/05/27 15:37:29;;;;;;;9.52;1.55;;;;;;;;;;4994233;28;20050;-80
2022/05/27 15:39:57;;;;;;;8.75;2.08;;;;;;;;;;4994854;28;20045;-81
2022/05/27 15:42:25;;;;;;;11.95;2.55;;;;;;;;;;5012542;28;20049;-85
2022/05/27 15:44:53;;;;;;;13.98;1.75;;;;;;;;;;4995615;28;20127;-86
2022/05/27 15:47:21;;;;;;;17.65;2.30;;;;;;;;;;4994751;28;20128;-83